createdAt,value
2023-02-12T00:00:43.871Z,2.42
2023-02-12T00:01:43.825Z,2.51
2023-02-12T00:02:43.933Z,2.56
2023-02-12T00:03:43.961Z,2.44
2023-02-12T00:04:43.814Z,2.60
2023-02-12T00:05:43.775Z,2.56
2023-02-12T00:06:43.813Z,2.62
2023-02-12T00:07:43.750Z,2.56
2023-02-12T00:08:43.769Z,2.57
2023-02-12T00:09:43.765Z,2.60
2023-02-12T00:10:43.736Z,2.47
2023-02-12T00:11:43.699Z,2.50
2023-02-12T00:12:43.692Z,2.57
2023-02-12T00:13:43.719Z,2.51
2023-02-12T00:14:43.676Z,2.47
2023-02-12T00:15:43.786Z,2.49
2023-02-12T00:16:43.712Z,2.50
2023-02-12T00:17:43.798Z,2.49
2023-02-12T00:18:43.653Z,2.49
2023-02-12T00:19:43.617Z,2.53
2023-02-12T00:20:43.637Z,2.53
2023-02-12T00:21:43.606Z,2.51
2023-02-12T00:22:43.719Z,2.54
2023-02-12T00:23:43.589Z,2.60
2023-02-12T00:24:43.558Z,2.60
2023-02-12T00:25:43.575Z,2.62
2023-02-12T00:26:43.551Z,2.56
2023-02-12T00:27:43.563Z,2.57
2023-02-12T00:28:43.544Z,2.54
2023-02-12T00:29:43.506Z,2.54
2023-02-12T00:30:43.620Z,2.56
2023-02-12T00:31:43.549Z,2.44
2023-02-12T00:32:43.542Z,2.57
2023-02-12T00:33:43.515Z,2.60
2023-02-12T00:34:43.450Z,2.53
2023-02-12T00:35:43.430Z,2.57
2023-02-12T00:36:43.427Z,2.60
2023-02-12T00:37:43.409Z,2.61
2023-02-12T00:38:43.403Z,2.57
2023-02-12T00:39:43.421Z,2.54
2023-02-12T00:40:43.383Z,2.44
2023-02-12T00:41:43.365Z,2.61
2023-02-12T00:42:43.521Z,2.60
2023-02-12T00:43:43.346Z,2.62
2023-02-12T00:44:43.457Z,2.54
2023-02-12T00:45:43.334Z,2.50
2023-02-12T00:46:43.351Z,2.53
2023-02-12T00:47:43.326Z,2.60
2023-02-12T00:48:43.321Z,2.60
2023-02-12T00:49:43.278Z,2.62
2023-02-12T00:50:43.270Z,2.51
2023-02-12T00:51:43.312Z,2.57
2023-02-12T00:52:43.249Z,2.49
2023-02-12T00:53:43.226Z,2.56
2023-02-12T00:54:43.227Z,2.60
2023-02-12T00:55:43.206Z,2.62
2023-02-12T00:56:43.233Z,2.51
2023-02-12T00:57:43.210Z,2.56
2023-02-12T00:58:43.252Z,2.53
2023-02-12T00:59:43.216Z,2.57
2023-02-12T01:00:43.164Z,2.56
2023-02-12T01:01:43.223Z,2.54
2023-02-12T01:02:43.130Z,2.56
2023-02-12T01:03:43.164Z,2.62
2023-02-12T01:04:43.245Z,2.61
2023-02-12T01:05:43.097Z,2.57
2023-02-12T01:06:43.112Z,2.62
2023-02-12T01:07:43.082Z,2.67
2023-02-12T01:08:43.063Z,2.65
2023-02-12T01:09:43.099Z,2.54
2023-02-12T01:10:43.038Z,2.61
2023-02-12T01:11:43.083Z,2.64
2023-02-12T01:12:43.023Z,2.61
2023-02-12T01:13:43.007Z,2.51
2023-02-12T01:14:42.996Z,2.67
2023-02-12T01:15:43.237Z,2.64
2023-02-12T01:16:42.970Z,2.53
2023-02-12T01:17:43.007Z,2.57
2023-02-12T01:18:42.953Z,2.56
2023-02-12T01:19:42.953Z,2.51
2023-02-12T01:20:42.964Z,2.53
2023-02-12T01:21:43.027Z,2.62
2023-02-12T01:22:42.908Z,2.61
2023-02-12T01:23:42.900Z,2.61
2023-02-12T01:24:42.881Z,2.64
2023-02-12T01:25:42.880Z,2.67
2023-02-12T01:26:42.858Z,2.50
2023-02-12T01:27:42.881Z,2.56
2023-02-12T01:28:42.886Z,2.68
2023-02-12T01:29:42.831Z,2.65
2023-02-12T01:30:42.911Z,2.57
2023-02-12T01:31:43.035Z,2.64
2023-02-12T01:32:42.791Z,2.60
2023-02-12T01:33:42.854Z,2.64
2023-02-12T01:34:42.788Z,2.53
2023-02-12T01:35:42.782Z,2.62
2023-02-12T01:36:42.774Z,2.62
2023-02-12T01:37:42.773Z,2.53
2023-02-12T01:38:42.727Z,2.65
2023-02-12T01:39:42.874Z,2.50
2023-02-12T01:40:42.711Z,2.54
2023-02-12T01:41:42.700Z,2.61
2023-02-12T01:42:42.683Z,2.50
2023-02-12T01:43:42.674Z,2.62
2023-02-12T01:44:42.684Z,2.56
2023-02-12T01:45:42.667Z,2.64
2023-02-12T01:46:42.718Z,2.64
2023-02-12T01:47:42.624Z,2.54
2023-02-12T01:48:42.620Z,2.60
2023-02-12T01:49:42.608Z,2.64
2023-02-12T01:50:42.607Z,2.51
2023-02-12T01:51:42.617Z,2.57
2023-02-12T01:52:42.609Z,2.57
2023-02-12T01:53:42.560Z,2.61
2023-02-12T01:54:42.559Z,2.61
2023-02-12T01:55:42.536Z,2.65
2023-02-12T01:56:42.585Z,2.61
2023-02-12T01:57:42.531Z,2.56
2023-02-12T01:58:42.511Z,2.56
2023-02-12T01:59:42.511Z,2.68
2023-02-12T02:00:42.495Z,2.56
2023-02-12T02:01:42.715Z,2.64
2023-02-12T02:02:42.466Z,2.67
2023-02-12T02:03:42.575Z,2.67
2023-02-12T02:04:42.441Z,2.53
2023-02-12T02:05:42.445Z,2.64
2023-02-12T02:06:42.419Z,2.56
2023-02-12T02:07:42.480Z,2.54
2023-02-12T02:08:42.428Z,2.62
2023-02-12T02:09:42.441Z,2.65
2023-02-12T02:10:42.470Z,2.62
2023-02-12T02:11:42.358Z,2.61
2023-02-12T02:12:42.407Z,2.57
2023-02-12T02:13:42.337Z,2.65
2023-02-12T02:14:42.367Z,2.71
2023-02-12T02:15:42.375Z,2.57
2023-02-12T02:16:42.299Z,2.65
2023-02-12T02:17:42.297Z,2.60
2023-02-12T02:18:42.317Z,2.53
2023-02-12T02:19:42.269Z,2.65
2023-02-12T02:20:42.272Z,2.65
2023-02-12T02:21:42.256Z,2.65
2023-02-12T02:22:42.261Z,2.62
2023-02-12T02:23:42.222Z,2.61
2023-02-12T02:24:42.266Z,2.57
2023-02-12T02:25:42.198Z,2.64
2023-02-12T02:26:42.210Z,2.64
2023-02-12T02:27:42.198Z,2.69
2023-02-12T02:28:42.168Z,2.60
2023-02-12T02:29:42.149Z,2.60
2023-02-12T02:30:42.202Z,2.65
2023-02-12T02:31:42.179Z,2.60
2023-02-12T02:32:42.138Z,2.62
2023-02-12T02:33:42.164Z,2.67
2023-02-12T02:34:42.101Z,2.62
2023-02-12T02:35:42.103Z,2.62
2023-02-12T02:36:58.055Z,2.75
2023-02-12T02:37:43.072Z,2.67
2023-02-12T02:38:42.053Z,2.72
2023-02-12T02:39:42.080Z,2.65
2023-02-12T02:40:42.055Z,2.56
2023-02-12T02:41:42.009Z,2.61
2023-02-12T02:42:42.062Z,2.60
2023-02-12T02:43:41.995Z,2.64
2023-02-12T02:44:42.028Z,2.61
2023-02-12T02:45:41.993Z,2.68
2023-02-12T02:46:42.035Z,2.57
2023-02-12T02:47:41.966Z,2.77
2023-02-12T02:48:41.937Z,2.71
2023-02-12T02:49:41.925Z,2.62
2023-02-12T02:50:41.920Z,2.61
2023-02-12T02:51:41.954Z,2.68
2023-02-12T02:52:41.896Z,2.62
2023-02-12T02:53:41.918Z,2.57
2023-02-12T02:54:41.867Z,2.62
2023-02-12T02:55:41.951Z,2.65
2023-02-12T02:56:41.868Z,2.64
2023-02-12T02:57:41.939Z,2.68
2023-02-12T02:58:59.592Z,2.69
2023-02-12T02:59:41.814Z,2.60
2023-02-12T03:00:41.811Z,2.57
2023-02-12T03:01:41.794Z,2.62
2023-02-12T03:02:41.809Z,2.60
2023-02-12T03:03:41.806Z,2.62
2023-02-12T03:04:41.769Z,2.62
2023-02-12T03:05:41.746Z,2.67
2023-02-12T03:06:41.750Z,2.64
2023-02-12T03:07:41.723Z,2.64
2023-02-12T03:08:41.708Z,2.61
2023-02-12T03:09:41.727Z,2.61
2023-02-12T03:10:41.703Z,2.56
2023-02-12T03:11:41.680Z,2.65
2023-02-12T03:12:41.691Z,2.62
2023-02-12T03:13:41.656Z,2.53
2023-02-12T03:14:41.645Z,2.68
2023-02-12T03:15:41.641Z,2.64
2023-02-12T03:16:41.705Z,2.56
2023-02-12T03:17:41.606Z,2.65
2023-02-12T03:18:41.683Z,2.62
2023-02-12T03:19:41.591Z,2.64
2023-02-12T03:20:41.602Z,2.62
2023-02-12T03:21:41.600Z,2.64
2023-02-12T03:22:41.556Z,2.64
2023-02-12T03:23:41.544Z,2.60
2023-02-12T03:24:41.548Z,2.56
2023-02-12T03:25:41.540Z,2.50
2023-02-12T03:26:41.516Z,2.61
2023-02-12T03:27:41.636Z,2.61
2023-02-12T03:28:41.541Z,2.57
2023-02-12T03:29:41.481Z,2.57
2023-02-12T03:30:41.485Z,2.68
2023-02-12T03:31:41.538Z,2.64
2023-02-12T03:32:41.442Z,2.74
2023-02-12T03:33:41.468Z,2.68
2023-02-12T03:34:41.421Z,2.74
2023-02-12T03:35:41.407Z,2.57
2023-02-12T03:36:41.410Z,2.65
2023-02-12T03:37:41.393Z,2.72
2023-02-12T03:38:41.388Z,2.61
2023-02-12T03:39:41.398Z,2.57
2023-02-12T03:40:41.355Z,2.69
2023-02-12T03:41:41.359Z,2.61
2023-02-12T03:42:41.347Z,2.62
2023-02-12T03:43:41.320Z,2.57
2023-02-12T03:44:41.346Z,2.69
2023-02-12T03:45:41.359Z,2.72
2023-02-12T03:46:41.298Z,2.61
2023-02-12T03:47:41.357Z,2.61
2023-02-12T03:48:41.389Z,2.67
2023-02-12T03:49:41.254Z,2.69
2023-02-12T03:50:41.252Z,2.60
2023-02-12T03:51:41.266Z,2.57
2023-02-12T03:52:41.226Z,2.54
2023-02-12T03:53:41.208Z,2.72
2023-02-12T03:54:41.196Z,2.68
2023-02-12T03:55:41.192Z,2.57
2023-02-12T03:56:41.175Z,2.72
2023-02-12T03:57:41.277Z,2.60
2023-02-12T03:58:41.154Z,2.68
2023-02-12T03:59:41.138Z,2.65
2023-02-12T04:00:41.186Z,2.65
2023-02-12T04:01:41.264Z,2.74
2023-02-12T04:02:41.103Z,2.67
2023-02-12T04:03:41.154Z,2.65
2023-02-12T04:04:41.220Z,2.65
2023-02-12T04:05:41.069Z,2.65
2023-02-12T04:06:41.062Z,2.67
2023-02-12T04:07:41.046Z,2.68
2023-02-12T04:08:41.038Z,2.69
2023-02-12T04:09:41.110Z,2.65
2023-02-12T04:10:41.012Z,2.72
2023-02-12T04:11:41.006Z,2.65
2023-02-12T04:12:40.985Z,2.68
2023-02-12T04:13:40.984Z,2.64
2023-02-12T04:14:40.986Z,2.67
2023-02-12T04:15:40.984Z,2.69
2023-02-12T04:16:41.041Z,2.61
2023-02-12T04:17:41.080Z,2.61
2023-02-12T04:18:40.930Z,2.67
2023-02-12T04:19:40.915Z,2.60
2023-02-12T04:20:40.941Z,2.65
2023-02-12T04:21:40.931Z,2.65
2023-02-12T04:22:40.920Z,2.54
2023-02-12T04:23:40.866Z,2.64
2023-02-12T04:24:40.865Z,2.64
2023-02-12T04:25:40.845Z,2.53
2023-02-12T04:26:40.847Z,2.61
2023-02-12T04:27:40.891Z,2.64
2023-02-12T04:28:40.881Z,2.65
2023-02-12T04:29:40.865Z,2.62
2023-02-12T04:30:40.881Z,2.62
2023-02-12T04:31:40.978Z,2.65
2023-02-12T04:32:40.802Z,2.61
2023-02-12T04:33:40.784Z,2.60
2023-02-12T04:34:40.824Z,2.61
2023-02-12T04:35:40.747Z,2.62
2023-02-12T04:36:40.746Z,2.57
2023-02-12T04:37:40.722Z,2.64
2023-02-12T04:38:40.710Z,2.62
2023-02-12T04:39:40.714Z,2.53
2023-02-12T04:40:40.695Z,2.61
2023-02-12T04:41:40.667Z,2.61
2023-02-12T04:42:40.659Z,2.67
2023-02-12T04:43:40.642Z,2.49
2023-02-12T04:44:40.657Z,2.60
2023-02-12T04:45:40.781Z,2.60
2023-02-12T04:46:40.620Z,2.57
2023-02-12T04:47:40.624Z,2.49
2023-02-12T04:48:40.685Z,2.47
2023-02-12T04:49:40.575Z,2.60
2023-02-12T04:50:40.595Z,2.49
2023-02-12T04:51:40.591Z,2.51
2023-02-12T04:52:40.600Z,2.44
2023-02-12T04:53:40.533Z,2.46
2023-02-12T04:54:40.520Z,2.61
2023-02-12T04:55:40.526Z,2.46
2023-02-12T04:56:40.498Z,2.50
2023-02-12T04:57:40.572Z,2.54
2023-02-12T04:58:40.484Z,2.47
2023-02-12T04:59:40.475Z,2.49
2023-02-12T05:00:40.472Z,2.43
2023-02-12T05:01:40.551Z,2.46
2023-02-12T05:02:40.505Z,2.53
2023-02-12T05:03:40.476Z,2.53
2023-02-12T05:04:40.527Z,2.53
2023-02-12T05:05:40.443Z,2.49
2023-02-12T05:06:40.419Z,2.42
2023-02-12T05:07:40.377Z,2.43
2023-02-12T05:08:40.405Z,2.50
2023-02-12T05:09:40.396Z,2.51
2023-02-12T05:10:40.354Z,2.50
2023-02-12T05:11:40.340Z,2.47
2023-02-12T05:12:40.334Z,2.46
2023-02-12T05:13:40.335Z,2.50
2023-02-12T05:14:40.313Z,2.46
2023-02-12T05:15:40.412Z,2.51
2023-02-12T05:16:40.362Z,2.49
2023-02-12T05:17:40.309Z,2.46
2023-02-12T05:18:40.264Z,2.47
2023-02-12T05:19:40.254Z,2.53
2023-02-12T05:20:40.259Z,2.50
2023-02-12T05:21:40.267Z,2.57
2023-02-12T05:22:40.206Z,2.50
2023-02-12T05:23:40.215Z,2.53
2023-02-12T05:24:40.185Z,2.44
2023-02-12T05:25:40.202Z,2.53
2023-02-12T05:26:40.180Z,2.47
2023-02-12T05:27:40.301Z,2.50
2023-02-12T05:28:40.142Z,2.50
2023-02-12T05:29:40.137Z,2.50
2023-02-12T05:30:40.287Z,2.54
2023-02-12T05:31:40.243Z,2.57
2023-02-12T05:32:40.213Z,2.62
2023-02-12T05:33:40.099Z,2.57
2023-02-12T05:34:40.083Z,2.60
2023-02-12T05:35:40.075Z,2.53
2023-02-12T05:36:40.095Z,2.56
2023-02-12T05:37:40.055Z,2.60
2023-02-12T05:38:40.053Z,2.53
2023-02-12T05:39:40.039Z,2.49
2023-02-12T05:40:40.016Z,2.56
2023-02-12T05:41:40.000Z,2.46
2023-02-12T05:42:40.022Z,2.51
2023-02-12T05:43:39.974Z,2.53
2023-02-12T05:44:39.967Z,2.43
2023-02-12T05:45:39.995Z,2.51
2023-02-12T05:46:40.092Z,2.51
2023-02-12T05:47:39.934Z,2.43
2023-02-12T05:48:39.922Z,2.62
2023-02-12T05:49:39.904Z,2.61
2023-02-12T05:50:39.900Z,2.53
2023-02-12T05:51:39.908Z,2.62
2023-02-12T05:52:39.925Z,2.62
2023-02-12T05:53:39.872Z,2.62
2023-02-12T05:54:39.875Z,2.62
2023-02-12T05:55:39.836Z,2.54
2023-02-12T05:56:39.832Z,2.62
2023-02-12T05:57:39.844Z,2.62
2023-02-12T05:58:39.826Z,2.61
2023-02-12T05:59:39.800Z,2.64
2023-02-12T06:00:39.781Z,2.67
2023-02-12T06:01:39.777Z,2.57
2023-02-12T06:02:40.811Z,2.61
2023-02-12T06:03:39.803Z,2.65
2023-02-12T06:04:39.745Z,2.61
2023-02-12T06:05:39.731Z,2.57
2023-02-12T06:06:39.713Z,2.68
2023-02-12T06:07:39.712Z,2.71
2023-02-12T06:08:39.730Z,2.71
2023-02-12T06:09:39.708Z,2.71
2023-02-12T06:10:39.674Z,2.68
2023-02-12T06:11:39.660Z,2.69
2023-02-12T06:12:39.672Z,2.69
2023-02-12T06:13:39.632Z,2.86
2023-02-12T06:14:39.626Z,2.82
2023-02-12T06:15:39.635Z,2.80
2023-02-12T06:16:39.675Z,2.85
2023-02-12T06:17:39.589Z,2.82
2023-02-12T06:18:39.583Z,2.77
2023-02-12T06:19:39.589Z,2.79
2023-02-12T06:20:39.573Z,2.83
2023-02-12T06:21:39.607Z,2.86
2023-02-12T06:22:39.550Z,2.85
2023-02-12T06:23:39.533Z,2.83
2023-02-12T06:24:39.542Z,2.85
2023-02-12T06:25:39.589Z,2.85
2023-02-12T06:26:39.492Z,2.86
2023-02-12T06:27:39.569Z,2.89
2023-02-12T06:28:39.560Z,2.90
2023-02-12T06:29:39.481Z,2.97
2023-02-12T06:30:39.448Z,3.00
2023-02-12T06:31:39.581Z,2.98
2023-02-12T06:32:39.427Z,2.90
2023-02-12T06:33:39.540Z,2.98
2023-02-12T06:34:39.412Z,3.00
2023-02-12T06:35:39.417Z,3.04
2023-02-12T06:36:39.390Z,3.07
2023-02-12T06:37:39.374Z,3.08
2023-02-12T06:38:39.366Z,3.07
2023-02-12T06:39:39.396Z,3.13
2023-02-12T06:40:39.370Z,3.14
2023-02-12T06:41:39.375Z,3.16
2023-02-12T06:42:39.322Z,3.16
2023-02-12T06:43:39.333Z,3.14
2023-02-12T06:44:39.299Z,3.19
2023-02-12T06:45:39.328Z,3.14
2023-02-12T06:46:39.371Z,3.14
2023-02-12T06:47:39.310Z,3.29
2023-02-12T06:48:39.256Z,3.29
2023-02-12T06:49:39.251Z,3.23
2023-02-12T06:50:39.250Z,3.28
2023-02-12T06:51:39.358Z,3.29
2023-02-12T06:52:39.223Z,3.31
2023-02-12T06:53:39.206Z,3.37
2023-02-12T06:54:39.197Z,3.31
2023-02-12T06:55:39.203Z,3.41
2023-02-12T06:56:39.201Z,3.37
2023-02-12T06:57:39.207Z,3.37
2023-02-12T06:58:39.141Z,3.42
2023-02-12T06:59:39.132Z,3.42
2023-02-12T07:00:39.211Z,3.48
2023-02-12T07:01:39.112Z,3.58
2023-02-12T07:02:39.278Z,3.58
2023-02-12T07:03:39.212Z,3.68
2023-02-12T07:04:39.079Z,3.68
2023-02-12T07:05:39.075Z,3.69
2023-02-12T07:06:39.057Z,3.66
2023-02-12T07:07:39.052Z,3.74
2023-02-12T07:08:39.075Z,3.86
2023-02-12T07:09:39.058Z,3.92
2023-02-12T07:10:39.009Z,4.01
2023-02-12T07:11:39.002Z,3.95
2023-02-12T07:12:39.033Z,4.04
2023-02-12T07:13:39.010Z,4.02
2023-02-12T07:14:38.973Z,4.08
2023-02-12T07:15:38.993Z,4.06
2023-02-12T07:16:39.038Z,4.13
2023-02-12T07:17:38.934Z,4.20
2023-02-12T07:18:38.957Z,4.17
2023-02-12T07:19:38.928Z,4.31
2023-02-12T07:20:38.932Z,4.44
2023-02-12T07:21:38.940Z,4.34
2023-02-12T07:22:38.971Z,4.44
2023-02-12T07:23:38.868Z,4.42
2023-02-12T07:24:38.922Z,4.59
2023-02-12T07:25:38.846Z,4.66
2023-02-12T07:26:38.870Z,4.74
2023-02-12T07:27:38.867Z,4.78
2023-02-12T07:28:38.910Z,4.78
2023-02-12T07:29:38.803Z,4.82
2023-02-12T07:30:41.604Z,4.75
2023-02-12T07:31:38.805Z,4.86
2023-02-12T07:32:38.765Z,4.82
2023-02-12T07:33:38.780Z,4.84
2023-02-12T07:34:38.785Z,4.82
2023-02-12T07:35:38.737Z,4.84
2023-02-12T07:36:38.835Z,4.97
2023-02-12T07:37:38.723Z,4.99
2023-02-12T07:38:38.701Z,5.00
2023-02-12T07:39:38.725Z,5.04
2023-02-12T07:40:38.766Z,5.12
2023-02-12T07:41:38.671Z,5.02
2023-02-12T07:42:38.683Z,5.02
2023-02-12T07:43:38.650Z,5.08
2023-02-12T07:44:38.662Z,5.21
2023-02-12T07:45:38.684Z,5.10
2023-02-12T07:46:38.632Z,5.14
2023-02-12T07:47:38.624Z,5.08
2023-02-12T07:48:38.591Z,5.07
2023-02-12T07:49:38.589Z,5.07
2023-02-12T07:50:38.597Z,5.11
2023-02-12T07:51:38.590Z,5.08
2023-02-12T07:52:38.547Z,4.97
2023-02-12T07:53:38.547Z,5.08
2023-02-12T07:54:38.537Z,5.08
2023-02-12T07:55:38.512Z,5.11
2023-02-12T07:56:38.510Z,5.17
2023-02-12T07:57:38.676Z,5.30
2023-02-12T07:58:38.484Z,5.26
2023-02-12T07:59:38.481Z,5.28
2023-02-12T08:00:38.485Z,5.25
2023-02-12T08:01:38.473Z,5.21
2023-02-12T08:02:38.543Z,5.18
2023-02-12T08:03:38.632Z,5.23
2023-02-12T08:04:38.500Z,5.14
2023-02-12T08:05:38.401Z,5.20
2023-02-12T08:06:38.431Z,5.21
2023-02-12T08:07:38.382Z,5.33
2023-02-12T08:08:38.385Z,5.26
2023-02-12T08:09:38.390Z,5.32
2023-02-12T08:10:38.386Z,5.35
2023-02-12T08:11:38.332Z,5.33
2023-02-12T08:12:38.411Z,5.29
2023-02-12T08:13:38.311Z,5.23
2023-02-12T08:14:38.344Z,5.26
2023-02-12T08:15:38.309Z,5.29
2023-02-12T08:16:38.498Z,5.29
2023-02-12T08:17:38.269Z,5.33
2023-02-12T08:18:38.258Z,5.30
2023-02-12T08:19:38.245Z,5.32
2023-02-12T08:20:38.243Z,5.28
2023-02-12T08:21:38.260Z,5.32
2023-02-12T08:22:38.214Z,5.39
2023-02-12T08:23:38.202Z,5.41
2023-02-12T08:24:38.193Z,5.39
2023-02-12T08:25:38.182Z,5.50
2023-02-12T08:26:38.190Z,5.62
2023-02-12T08:27:38.192Z,5.68
2023-02-12T08:28:38.241Z,5.71
2023-02-12T08:29:38.136Z,5.71
2023-02-12T08:30:38.212Z,5.79
2023-02-12T08:31:38.180Z,5.80
2023-02-12T08:32:38.137Z,5.93
2023-02-12T08:33:38.127Z,5.97
2023-02-12T08:34:38.084Z,6.07
2023-02-12T08:35:38.095Z,6.11
2023-02-12T08:36:38.060Z,6.12
2023-02-12T08:37:38.046Z,6.19
2023-02-12T08:38:38.035Z,6.27
2023-02-12T08:39:38.109Z,6.30
2023-02-12T08:40:38.098Z,6.45
2023-02-12T08:41:38.007Z,6.38
2023-02-12T08:42:37.993Z,6.39
2023-02-12T08:43:37.992Z,6.41
2023-02-12T08:44:37.970Z,6.48
2023-02-12T08:45:38.069Z,6.56
2023-02-12T08:46:37.950Z,6.54
2023-02-12T08:47:37.937Z,6.57
2023-02-12T08:48:37.950Z,6.63
2023-02-12T08:49:37.918Z,6.70
2023-02-12T08:50:37.889Z,6.77
2023-02-12T08:51:38.015Z,6.78
2023-02-12T08:52:37.872Z,6.79
2023-02-12T08:53:37.878Z,6.88
2023-02-12T08:54:37.852Z,6.81
2023-02-12T08:55:37.856Z,6.81
2023-02-12T08:56:37.827Z,6.87
2023-02-12T08:57:37.865Z,6.85
2023-02-12T08:58:37.796Z,6.85
2023-02-12T08:59:37.791Z,6.82
2023-02-12T09:00:40.365Z,6.88
2023-02-12T09:01:37.797Z,6.96
2023-02-12T09:02:37.791Z,7.00
2023-02-12T09:03:37.868Z,6.97
2023-02-12T09:04:37.765Z,7.05
2023-02-12T09:05:37.744Z,7.11
2023-02-12T09:06:37.711Z,7.25
2023-02-12T09:07:37.704Z,7.28
2023-02-12T09:08:37.687Z,7.24
2023-02-12T09:09:37.788Z,7.38
2023-02-12T09:10:37.667Z,7.39
2023-02-12T09:11:37.670Z,7.51
2023-02-12T09:12:37.644Z,7.38
2023-02-12T09:13:37.629Z,7.47
2023-02-12T09:14:37.619Z,7.61
2023-02-12T09:15:37.637Z,7.60
2023-02-12T09:16:37.647Z,7.61
2023-02-12T09:17:37.589Z,7.58
2023-02-12T09:18:37.573Z,7.63
2023-02-12T09:19:37.649Z,7.66
2023-02-12T09:20:37.584Z,7.72
2023-02-12T09:21:37.625Z,7.75
2023-02-12T09:22:37.535Z,7.79
2023-02-12T09:23:37.556Z,7.83
2023-02-12T09:24:37.512Z,7.91
2023-02-12T09:25:37.527Z,7.91
2023-02-12T09:26:37.498Z,7.93
2023-02-12T09:27:37.551Z,7.95
2023-02-12T09:28:37.578Z,7.93
2023-02-12T09:29:37.459Z,7.95
2023-02-12T09:30:37.587Z,8.09
2023-02-12T09:31:37.608Z,8.03
2023-02-12T09:32:37.415Z,8.09
2023-02-12T09:33:37.589Z,8.00
2023-02-12T09:34:37.403Z,8.06
2023-02-12T09:35:37.386Z,7.95
2023-02-12T09:36:37.433Z,8.01
2023-02-12T09:37:37.371Z,8.00
2023-02-12T09:38:37.365Z,7.94
2023-02-12T09:39:37.369Z,8.03
2023-02-12T09:40:37.332Z,7.93
2023-02-12T09:41:37.432Z,7.94
2023-02-12T09:42:37.309Z,8.01
2023-02-12T09:43:37.296Z,8.03
2023-02-12T09:44:37.290Z,8.00
2023-02-12T09:45:37.318Z,7.93
2023-02-12T09:46:37.343Z,8.09
2023-02-12T09:47:37.255Z,7.94
2023-02-12T09:48:37.245Z,8.03
2023-02-12T09:49:37.241Z,7.98
2023-02-12T09:50:37.270Z,7.95
2023-02-12T09:51:37.248Z,7.95
2023-02-12T09:52:37.340Z,7.97
2023-02-12T09:53:37.223Z,7.93
2023-02-12T09:54:37.208Z,7.95
2023-02-12T09:55:37.163Z,7.95
2023-02-12T09:56:37.163Z,7.90
2023-02-12T09:57:37.176Z,7.95
2023-02-12T09:58:37.154Z,7.98
2023-02-12T09:59:37.131Z,7.94
2023-02-12T10:00:37.157Z,8.01
2023-02-12T10:01:37.201Z,8.05
2023-02-12T10:02:37.097Z,7.98
2023-02-12T10:03:37.126Z,7.95
2023-02-12T10:04:37.246Z,7.95
2023-02-12T10:05:37.053Z,7.98
2023-02-12T10:06:37.062Z,7.88
2023-02-12T10:07:37.034Z,7.80
2023-02-12T10:08:37.056Z,7.91
2023-02-12T10:09:37.174Z,7.69
2023-02-12T10:10:37.001Z,7.80
2023-02-12T10:11:36.997Z,7.91
2023-02-12T10:12:36.982Z,7.90
2023-02-12T10:13:36.975Z,7.83
2023-02-12T10:14:36.974Z,7.94
2023-02-12T10:15:37.185Z,7.90
2023-02-12T10:16:38.414Z,7.93
2023-02-12T10:17:36.954Z,7.90
2023-02-12T10:18:36.931Z,7.83
2023-02-12T10:19:36.905Z,8.00
2023-02-12T10:20:39.009Z,7.93
2023-02-12T10:21:37.054Z,8.03
2023-02-12T10:22:45.484Z,8.06
2023-02-12T10:23:37.888Z,8.06
2023-02-12T10:24:36.951Z,8.08
2023-02-12T10:25:36.905Z,8.19
2023-02-12T10:26:36.952Z,8.30
2023-02-12T10:27:36.845Z,8.38
2023-02-12T10:28:36.849Z,8.49
2023-02-12T10:29:36.805Z,8.49
2023-02-12T10:30:36.831Z,8.52
2023-02-12T10:31:36.872Z,8.63
2023-02-12T10:32:36.775Z,8.66
2023-02-12T10:33:37.778Z,8.66
2023-02-12T10:34:36.738Z,8.64
2023-02-12T10:35:36.741Z,8.66
2023-02-12T10:36:36.774Z,8.63
2023-02-12T10:37:36.708Z,8.66
2023-02-12T10:38:36.706Z,8.67
2023-02-12T10:39:36.694Z,8.69
2023-02-12T10:40:36.693Z,8.60
2023-02-12T10:41:36.655Z,8.61
2023-02-12T10:42:36.736Z,8.69
2023-02-12T10:43:36.630Z,8.66
2023-02-12T10:44:36.727Z,8.66
2023-02-12T10:45:36.640Z,8.63
2023-02-12T10:46:36.688Z,8.67
2023-02-12T10:47:36.582Z,8.66
2023-02-12T10:48:36.639Z,8.73
2023-02-12T10:49:36.562Z,8.85
2023-02-12T10:50:36.551Z,8.91
2023-02-12T10:51:36.579Z,9.13
2023-02-12T10:52:36.619Z,9.18
2023-02-12T10:53:36.522Z,9.23
2023-02-12T10:54:36.509Z,9.32
2023-02-12T10:55:36.507Z,9.31
2023-02-12T10:56:36.513Z,9.28
2023-02-12T10:57:36.485Z,9.22
2023-02-12T10:58:36.468Z,9.21
2023-02-12T10:59:36.455Z,9.18
2023-02-12T11:00:36.450Z,9.25
2023-02-12T11:01:36.490Z,9.23
2023-02-12T11:02:36.413Z,9.22
2023-02-12T11:03:36.436Z,9.28
2023-02-12T11:04:36.440Z,9.34
2023-02-12T11:05:36.381Z,9.36
2023-02-12T11:06:36.381Z,9.39
2023-02-12T11:07:36.357Z,9.46
2023-02-12T11:08:36.364Z,9.51
2023-02-12T11:09:36.384Z,9.43
2023-02-12T11:10:36.330Z,9.44
2023-02-12T11:11:36.314Z,9.32
2023-02-12T11:12:36.421Z,9.28
2023-02-12T11:13:36.320Z,9.25
2023-02-12T11:14:36.282Z,9.22
2023-02-12T11:15:36.403Z,9.19
2023-02-12T11:16:36.328Z,9.22
2023-02-12T11:17:36.286Z,9.11
2023-02-12T11:18:36.242Z,9.13
2023-02-12T11:19:36.376Z,9.13
2023-02-12T11:20:36.217Z,9.06
2023-02-12T11:21:36.285Z,8.89
2023-02-12T11:22:36.206Z,8.88
2023-02-12T11:23:36.248Z,8.85
2023-02-12T11:24:36.177Z,8.82
2023-02-12T11:25:36.165Z,8.78
2023-02-12T11:26:36.147Z,8.66
2023-02-12T11:27:36.170Z,8.55
2023-02-12T11:28:36.311Z,8.53
2023-02-12T11:29:36.114Z,8.52
2023-02-12T11:30:36.105Z,8.56
2023-02-12T11:31:36.206Z,8.45
2023-02-12T11:32:36.084Z,8.56
2023-02-12T11:33:36.089Z,8.56
2023-02-12T11:34:36.057Z,8.55
2023-02-12T11:35:36.064Z,8.51
2023-02-12T11:36:36.031Z,8.56
2023-02-12T11:37:36.023Z,8.46
2023-02-12T11:38:36.016Z,8.44
2023-02-12T11:39:36.036Z,8.41
2023-02-12T11:40:36.006Z,8.42
2023-02-12T11:41:35.983Z,8.37
2023-02-12T11:42:35.962Z,8.33
2023-02-12T11:43:35.973Z,8.31
2023-02-12T11:44:35.985Z,8.33
2023-02-12T11:45:35.994Z,8.41
2023-02-12T11:46:35.985Z,8.53
2023-02-12T11:47:35.910Z,8.58
2023-02-12T11:48:35.922Z,8.52
2023-02-12T11:49:35.889Z,8.66
2023-02-12T11:50:35.946Z,8.56
2023-02-12T11:51:35.908Z,8.56
2023-02-12T11:52:35.957Z,8.51
2023-02-12T11:53:35.855Z,8.44
2023-02-12T11:54:35.839Z,8.38
2023-02-12T11:55:35.830Z,8.37
2023-02-12T11:56:35.810Z,8.31
2023-02-12T11:57:36.126Z,8.31
2023-02-12T11:58:35.802Z,8.33
2023-02-12T11:59:35.786Z,8.36
2023-02-12T12:00:35.810Z,8.48
2023-02-12T12:01:35.846Z,8.45
2023-02-12T12:02:35.824Z,8.52
2023-02-12T12:03:35.764Z,8.51
2023-02-12T12:04:35.723Z,8.53
2023-02-12T12:05:35.710Z,8.53
2023-02-12T12:06:35.694Z,8.56
2023-02-12T12:07:35.708Z,8.55
2023-02-12T12:08:35.668Z,8.53
2023-02-12T12:09:35.694Z,8.45
2023-02-12T12:10:35.656Z,8.51
2023-02-12T12:11:35.633Z,8.46
2023-02-12T12:12:35.629Z,8.42
2023-02-12T12:13:35.614Z,8.30
2023-02-12T12:14:35.604Z,8.23
2023-02-12T12:15:35.649Z,8.15
2023-02-12T12:16:35.706Z,8.16
2023-02-12T12:17:35.584Z,8.13
2023-02-12T12:18:35.584Z,7.95
2023-02-12T12:19:35.548Z,7.93
2023-02-12T12:20:35.555Z,7.90
2023-02-12T12:21:35.599Z,7.93
2023-02-12T12:22:35.527Z,7.94
2023-02-12T12:23:35.638Z,7.98
2023-02-12T12:24:35.500Z,8.16
2023-02-12T12:25:35.488Z,8.16
2023-02-12T12:26:35.471Z,8.18
2023-02-12T12:27:35.520Z,8.30
2023-02-12T12:28:35.491Z,8.34
2023-02-12T12:29:35.432Z,8.31
2023-02-12T12:30:35.461Z,8.31
2023-02-12T12:31:35.480Z,8.34
2023-02-12T12:32:35.430Z,8.33
2023-02-12T12:33:35.427Z,8.27
2023-02-12T12:34:35.428Z,8.27
2023-02-12T12:35:35.379Z,8.27
2023-02-12T12:36:35.375Z,8.27
2023-02-12T12:37:35.347Z,8.23
2023-02-12T12:38:35.464Z,8.26
2023-02-12T12:39:35.362Z,8.45
2023-02-12T12:40:35.312Z,8.53
2023-02-12T12:41:35.331Z,8.53
2023-02-12T12:42:35.390Z,8.61
2023-02-12T12:43:35.278Z,8.52
2023-02-12T12:44:35.273Z,8.64
2023-02-12T12:45:35.352Z,8.63
2023-02-12T12:46:35.249Z,8.64
2023-02-12T12:47:35.232Z,8.64
2023-02-12T12:48:35.254Z,8.56
2023-02-12T12:49:35.217Z,8.76
2023-02-12T12:50:35.216Z,8.69
2023-02-12T12:51:35.344Z,8.84
2023-02-12T12:52:35.176Z,8.69
2023-02-12T12:53:35.257Z,8.69
2023-02-12T12:54:35.157Z,8.60
2023-02-12T12:55:35.163Z,8.66
2023-02-12T12:56:35.132Z,8.67
2023-02-12T12:57:35.209Z,8.52
2023-02-12T12:58:35.164Z,8.60
2023-02-12T12:59:35.101Z,8.53
2023-02-12T13:00:35.115Z,8.48
2023-02-12T13:01:35.096Z,8.42
2023-02-12T13:02:35.119Z,8.18
2023-02-12T13:03:35.080Z,8.15
2023-02-12T13:04:35.065Z,7.88
2023-02-12T13:05:35.035Z,7.77
2023-02-12T13:06:35.016Z,7.76
2023-02-12T13:07:35.016Z,7.63
2023-02-12T13:08:35.067Z,7.60
2023-02-12T13:09:35.010Z,7.48
2023-02-12T13:10:35.051Z,7.45
2023-02-12T13:11:34.996Z,7.25
2023-02-12T13:12:35.125Z,7.25
2023-02-12T13:13:34.946Z,7.13
2023-02-12T13:14:34.932Z,7.11
2023-02-12T13:15:34.965Z,7.06
2023-02-12T13:16:34.953Z,7.02
2023-02-12T13:17:34.897Z,7.05
2023-02-12T13:18:34.908Z,6.97